Time;durP1;ratioP1;P1;durP2;ratioP2;P2;SDS_P1;SDS_P2;PMS_P1;PMS_P2;Temp;Humidity;BMP_temperature;BMP_pressure;BME280_temperature;BME280_humidity;BME280_pressure;Samples;Min_cycle;Max_cycle;Signal;HPM_P1;HPM_P2
2023/06/21 00:01:35;;;;;;;3.03;2.40;;;27.80;54.90;;;;;;5048605;28;20457;-59
2023/06/21 00:04:01;;;;;;;3.30;2.67;;;27.80;54.80;;;;;;5044982;28;20091;-60
2023/06/21 00:06:34;;;;;;;3.45;3.00;;;27.80;54.80;;;;;;5031387;28;20356;-60
2023/06/21 00:09:04;;;;;;;3.42;2.80;;;27.80;54.80;;;;;;5046698;28;20352;-60
2023/06/21 00:11:30;;;;;;;4.15;3.00;;;27.70;54.70;;;;;;5043796;28;20033;-62
2023/06/21 00:13:56;;;;;;;3.67;2.50;;;27.70;54.80;;;;;;5044245;28;20078;-60
2023/06/21 00:16:22;;;;;;;3.03;2.72;;;27.80;54.80;;;;;;5045457;28;20086;-60
2023/06/21 00:18:49;;;;;;;3.28;2.60;;;27.70;54.80;;;;;;5030912;28;20105;-59
2023/06/21 00:21:15;;;;;;;3.13;2.83;;;27.70;54.70;;;;;;5051150;28;20040;-59
2023/06/21 00:23:44;;;;;;;3.33;2.35;;;27.70;54.70;;;;;;5044926;28;20098;-62
2023/06/21 00:26:10;;;;;;;3.40;2.65;;;27.70;54.70;;;;;;5047861;28;20080;-61
2023/06/21 00:28:36;;;;;;;2.88;2.30;;;27.70;54.60;;;;;;5033017;28;20040;-61
2023/06/21 00:31:08;;;;;;;2.97;2.65;;;27.70;54.60;;;;;;5032906;28;20099;-62
2023/06/21 00:33:34;;;;;;;3.38;2.58;;;27.70;54.50;;;;;;5043568;28;20148;-60
2023/06/21 00:36:00;;;;;;;2.50;2.30;;;27.70;54.50;;;;;;5031259;28;20090;-58
2023/06/21 00:38:26;;;;;;;3.20;2.30;;;27.60;54.30;;;;;;5030774;28;20334;-61
2023/06/21 00:40:53;;;;;;;2.80;2.47;;;27.70;54.30;;;;;;5048546;28;20062;-61
2023/06/21 00:43:19;;;;;;;3.50;2.50;;;27.60;54.30;;;;;;5031016;28;20227;-62
2023/06/21 00:45:48;;;;;;;2.65;2.40;;;27.60;54.20;;;;;;5028507;28;20087;-62
2023/06/21 00:48:15;;;;;;;3.33;2.85;;;27.70;54.20;;;;;;5028557;28;20028;-61
2023/06/21 00:50:41;;;;;;;2.75;2.40;;;27.60;54.10;;;;;;5047965;28;20051;-59
2023/06/21 00:53:09;;;;;;;2.40;2.20;;;27.60;54.10;;;;;;5044022;28;20041;-60
2023/06/21 00:55:36;;;;;;;2.80;2.60;;;27.60;54.00;;;;;;5047356;28;20294;-58
2023/06/21 00:58:03;;;;;;;2.55;2.20;;;27.60;54.00;;;;;;5046603;28;20443;-62
2023/06/21 01:00:29;;;;;;;3.55;2.72;;;27.60;54.00;;;;;;5048441;28;20025;-60
2023/06/21 01:02:58;;;;;;;2.67;2.38;;;27.60;54.60;;;;;;5028558;28;20029;-60
2023/06/21 01:05:26;;;;;;;2.78;2.47;;;27.60;53.90;;;;;;5028810;28;20045;-61
2023/06/21 01:08:11;;;;;;;3.08;2.78;;;27.60;53.90;;;;;;5020333;28;20065;-59
2023/06/21 01:11:12;;;;;;;3.38;2.90;;;27.60;53.80;;;;;;5049004;28;20033;-60
2023/06/21 01:13:53;;;;;;;3.75;2.58;;;27.60;53.80;;;;;;5043625;28;20182;-60
2023/06/21 01:16:23;;;;;;;2.58;2.30;;;27.50;53.70;;;;;;5019328;28;20112;-59
2023/06/21 01:18:51;;;;;;;4.38;2.30;;;27.50;53.70;;;;;;5023178;28;20037;-62
2023/06/21 01:21:22;;;;;;;2.47;2.22;;;27.50;53.70;;;;;;5050017;28;20138;-62
2023/06/21 01:24:10;;;;;;;2.60;2.38;;;27.50;54.30;;;;;;5012217;28;20029;-62
2023/06/21 01:26:52;;;;;;;3.08;2.30;;;27.50;53.70;;;;;;5037285;28;20040;-62
2023/06/21 01:29:23;;;;;;;2.85;2.55;;;27.50;53.70;;;;;;5046979;28;20049;-63
2023/06/21 01:31:52;;;;;;;2.47;2.22;;;27.40;53.60;;;;;;5026074;28;20116;-60
2023/06/21 01:34:18;;;;;;;2.80;2.55;;;27.50;53.70;;;;;;5031285;28;20097;-59
2023/06/21 01:36:45;;;;;;;3.28;2.50;;;27.40;53.60;;;;;;5049817;28;20048;-62
2023/06/21 01:39:10;;;;;;;2.92;2.47;;;27.40;53.60;;;;;;5030888;28;20037;-62
2023/06/21 01:41:37;;;;;;;2.50;2.30;;;27.40;53.60;;;;;;5031928;28;20037;-63
2023/06/21 01:44:05;;;;;;;3.05;2.30;;;27.40;53.60;;;;;;5022778;28;20125;-63
2023/06/21 01:46:31;;;;;;;2.78;2.58;;;27.40;53.60;;;;;;5030822;28;20178;-61
2023/06/21 01:49:00;;;;;;;2.60;2.40;;;27.40;53.60;;;;;;5048915;28;20052;-61
2023/06/21 01:51:26;;;;;;;2.92;2.53;;;27.40;53.70;;;;;;5030681;28;20056;-63
2023/06/21 01:53:54;;;;;;;2.53;2.33;;;27.40;53.70;;;;;;5026560;28;20048;-61
2023/06/21 01:56:23;;;;;;;3.00;2.45;;;27.40;53.70;;;;;;5031205;28;20040;-65
2023/06/21 01:58:49;;;;;;;3.10;2.80;;;27.40;53.70;;;;;;5044741;28;20078;-60
2023/06/21 02:01:18;;;;;;;3.15;2.53;;;27.40;53.70;;;;;;5028129;28;20051;-61
2023/06/21 02:03:52;;;;;;;4.32;3.17;;;27.40;53.70;;;;;;5028682;28;20029;-60
2023/06/21 02:06:26;;;;;;;3.45;2.80;;;27.40;53.70;;;;;;5029390;28;20032;-61
2023/06/21 02:08:52;;;;;;;;;;;27.40;53.70;;;;;;5028520;28;20404;-62
2023/06/21 02:11:19;;;;;;;3.10;2.80;;;27.40;53.70;;;;;;5047722;28;19971;-59
2023/06/21 02:13:48;;;;;;;3.10;2.80;;;27.30;53.70;;;;;;5027486;28;20124;-60
2023/06/21 02:16:15;;;;;;;3.15;2.78;;;27.40;53.80;;;;;;5027503;28;20047;-63
2023/06/21 02:18:41;;;;;;;3.60;3.25;;;27.30;54.30;;;;;;5028236;28;20052;-62
2023/06/21 02:21:08;;;;;;;3.47;3.15;;;27.30;53.70;;;;;;5016307;28;20061;-61
2023/06/21 02:23:34;;;;;;;3.72;3.00;;;27.30;53.70;;;;;;5029794;28;20039;-60
2023/06/21 02:26:00;;;;;;;4.10;3.17;;;27.30;53.70;;;;;;5042947;28;20032;-60
2023/06/21 02:28:25;;;;;;;4.22;3.38;;;27.30;53.80;;;;;;5044428;28;20327;-61
2023/06/21 02:30:51;;;;;;;3.38;3.05;;;27.30;53.80;;;;;;5041349;28;20131;-61
2023/06/21 02:33:17;;;;;;;3.90;3.50;;;27.30;53.80;;;;;;5025979;28;20033;-61
2023/06/21 02:35:43;;;;;;;3.88;3.47;;;27.30;53.80;;;;;;5029753;28;20071;-60
2023/06/21 02:38:09;;;;;;;4.00;3.58;;;27.30;53.80;;;;;;5030428;28;20033;-62
2023/06/21 02:40:35;;;;;;;3.92;3.50;;;27.30;54.40;;;;;;5030016;28;20052;-61
2023/06/21 02:43:01;;;;;;;5.63;3.88;;;27.30;53.80;;;;;;5029221;28;20063;-64
2023/06/21 02:45:26;;;;;;;4.57;3.95;;;27.30;53.80;;;;;;5024400;28;20033;-63
2023/06/21 02:47:54;;;;;;;4.63;3.65;;;27.30;53.90;;;;;;5044352;28;20108;-61
2023/06/21 02:50:20;;;;;;;3.88;3.50;;;27.30;53.90;;;;;;5028082;28;20059;-61
2023/06/21 02:52:46;;;;;;;4.20;3.80;;;27.20;53.90;;;;;;5040795;28;20022;-60
2023/06/21 02:55:12;;;;;;;4.97;4.20;;;27.20;53.90;;;;;;5029840;28;20723;-60
2023/06/21 02:57:38;;;;;;;4.10;3.70;;;27.20;53.90;;;;;;5040791;28;20029;-61
2023/06/21 03:00:28;;;;;;;5.50;3.80;;;27.20;53.90;;;;;;5040812;28;20033;-62
2023/06/21 03:03:00;;;;;;;4.35;3.95;;;27.20;53.90;;;;;;5028815;28;20124;-59
2023/06/21 03:05:27;;;;;;;5.07;4.45;;;27.20;53.90;;;;;;5042913;28;20364;-61
2023/06/21 03:07:54;;;;;;;4.85;4.35;;;27.20;53.90;;;;;;5044263;28;20066;-60
2023/06/21 03:10:20;;;;;;;5.00;4.50;;;27.20;53.90;;;;;;5026784;28;20386;-62
2023/06/21 03:12:46;;;;;;;8.45;4.38;;;27.10;53.90;;;;;;5027047;28;20036;-63
2023/06/21 03:15:16;;;;;;;4.88;4.38;;;27.20;54.00;;;;;;5030164;28;20067;-60
2023/06/21 03:17:43;;;;;;;6.03;4.97;;;27.20;54.00;;;;;;5030585;28;20123;-61
2023/06/21 03:20:13;;;;;;;5.35;4.85;;;27.20;54.00;;;;;;5049532;28;20090;-60
2023/06/21 03:22:43;;;;;;;5.82;4.90;;;27.10;54.00;;;;;;5032809;28;20091;-61
2023/06/21 03:25:10;;;;;;;5.32;4.75;;;27.20;54.10;;;;;;5030447;28;20350;-61
2023/06/21 03:27:37;;;;;;;5.38;4.80;;;27.20;54.10;;;;;;5048154;28;20029;-62
2023/06/21 03:30:05;;;;;;;5.40;4.78;;;27.20;54.10;;;;;;5028679;28;20021;-62
2023/06/21 03:32:32;;;;;;;5.32;4.60;;;27.10;54.00;;;;;;5027166;28;20087;-63
2023/06/21 03:34:58;;;;;;;5.05;4.60;;;27.10;54.10;;;;;;5012508;28;20361;-61
2023/06/21 03:37:28;;;;;;;5.05;4.57;;;27.10;54.10;;;;;;5030534;28;20021;-61
2023/06/21 03:39:54;;;;;;;5.97;5.38;;;27.10;54.10;;;;;;5029421;28;20108;-62
2023/06/21 03:42:20;;;;;;;6.57;5.60;;;27.10;54.10;;;;;;5048174;28;20742;-62
2023/06/21 03:44:46;;;;;;;6.00;5.40;;;27.10;54.10;;;;;;5024913;28;20046;-63
2023/06/21 03:47:12;;;;;;;5.95;5.35;;;27.10;54.10;;;;;;5027756;28;20102;-62
2023/06/21 03:49:40;;;;;;;5.28;4.78;;;27.10;54.10;;;;;;5027809;28;20056;-61
2023/06/21 03:52:06;;;;;;;5.80;5.30;;;27.10;54.20;;;;;;5029809;28;20397;-60
2023/06/21 03:54:32;;;;;;;5.30;4.80;;;27.10;54.20;;;;;;5030652;28;20136;-63
2023/06/21 03:56:58;;;;;;;5.22;4.72;;;27.10;54.20;;;;;;5028177;28;20447;-63
2023/06/21 03:59:24;;;;;;;5.10;4.60;;;27.10;54.20;;;;;;5048671;28;20049;-62
2023/06/21 04:01:50;;;;;;;5.97;4.20;;;27.10;54.20;;;;;;5025811;28;20064;-62
2023/06/21 04:04:16;;;;;;;5.22;4.72;;;27.10;54.20;;;;;;5048014;28;20093;-61
2023/06/21 04:06:43;;;;;;;5.38;4.72;;;27.10;54.20;;;;;;5044459;28;20035;-61
2023/06/21 04:09:08;;;;;;;5.45;4.95;;;27.10;54.20;;;;;;5048010;28;20029;-62
2023/06/21 04:11:34;;;;;;;5.32;4.82;;;27.00;54.10;;;;;;5045984;28;20335;-60
2023/06/21 04:14:00;;;;;;;4.65;4.22;;;27.00;54.20;;;;;;5047594;28;20697;-60
2023/06/21 04:16:26;;;;;;;5.22;4.70;;;27.10;54.80;;;;;;5045763;28;20381;-62
2023/06/21 04:18:52;;;;;;;5.70;4.80;;;27.10;54.30;;;;;;5024975;28;20095;-60
2023/06/21 04:21:18;;;;;;;5.40;4.90;;;27.00;54.20;;;;;;5021162;28;20025;-62
2023/06/21 04:23:44;;;;;;;5.03;4.53;;;27.00;54.20;;;;;;5047631;28;20029;-60
2023/06/21 04:26:12;;;;;;;5.57;4.95;;;27.00;54.20;;;;;;5025202;28;20468;-61
2023/06/21 04:28:41;;;;;;;5.20;4.70;;;27.00;54.20;;;;;;5028149;28;20317;-61
2023/06/21 04:31:06;;;;;;;5.07;4.55;;;27.10;54.30;;;;;;5028993;28;20021;-61
2023/06/21 04:33:34;;;;;;;5.30;4.80;;;27.00;54.30;;;;;;5046040;28;21730;-61
2023/06/21 04:36:00;;;;;;;5.30;4.80;;;27.00;54.30;;;;;;5047672;28;20081;-60
2023/06/21 04:38:26;;;;;;;5.15;4.68;;;27.00;54.30;;;;;;5023839;28;20055;-60
2023/06/21 04:40:54;;;;;;;6.03;5.43;;;27.00;54.30;;;;;;5048856;28;20025;-60
2023/06/21 04:43:25;;;;;;;5.90;5.35;;;27.00;54.30;;;;;;5046618;28;20456;-62
2023/06/21 04:45:53;;;;;;;5.90;5.30;;;27.00;54.30;;;;;;5020939;28;20037;-59
2023/06/21 04:48:24;;;;;;;6.38;5.35;;;27.00;54.30;;;;;;5045052;28;20409;-61
2023/06/21 04:50:50;;;;;;;8.57;6.68;;;27.00;54.40;;;;;;5047082;28;20099;-61
2023/06/21 04:53:16;;;;;;;6.45;5.85;;;27.00;54.40;;;;;;5043928;28;20021;-63
2023/06/21 04:55:43;;;;;;;7.68;5.93;;;27.00;54.40;;;;;;5027162;28;20379;-61
2023/06/21 04:58:12;;;;;;;6.80;5.60;;;27.00;54.40;;;;;;5047229;28;20078;-62
2023/06/21 05:00:38;;;;;;;6.85;6.13;;;27.00;54.50;;;;;;5046747;28;20807;-60
2023/06/21 05:03:04;;;;;;;6.20;5.60;;;27.00;54.50;;;;;;5046218;28;20021;-60
2023/06/21 05:05:30;;;;;;;6.82;6.15;;;27.00;54.40;;;;;;5046540;28;20391;-61
2023/06/21 05:07:56;;;;;;;7.40;6.70;;;27.00;54.50;;;;;;5046349;28;20029;-61
2023/06/21 05:10:22;;;;;;;7.10;6.40;;;26.90;54.40;;;;;;5020817;28;20044;-64
2023/06/21 05:12:48;;;;;;;10.23;6.50;;;27.00;54.40;;;;;;5047069;28;20033;-62
2023/06/21 05:15:14;;;;;;;9.18;6.50;;;27.00;54.40;;;;;;5045696;28;20044;-61
2023/06/21 05:17:39;;;;;;;7.93;6.93;;;26.90;54.40;;;;;;5024556;28;20051;-60
2023/06/21 05:20:08;;;;;;;7.30;6.60;;;27.00;54.40;;;;;;5047282;28;20025;-61
2023/06/21 05:22:34;;;;;;;7.65;6.85;;;27.00;54.40;;;;;;5045090;28;20028;-59
2023/06/21 05:25:02;;;;;;;7.88;6.90;;;26.90;54.30;;;;;;5046570;28;20086;-60
2023/06/21 05:27:28;;;;;;;9.65;6.72;;;26.90;54.30;;;;;;5044799;28;20036;-61
2023/06/21 05:29:54;;;;;;;8.57;7.78;;;26.90;54.30;;;;;;5027209;28;20029;-61
2023/06/21 05:32:20;;;;;;;8.55;7.70;;;26.90;54.30;;;;;;5045663;28;20087;-60
2023/06/21 05:34:46;;;;;;;8.20;7.40;;;26.90;54.30;;;;;;5026118;28;20055;-62
2023/06/21 05:37:12;;;;;;;9.15;8.25;;;26.90;54.30;;;;;;5044122;28;20105;-63
2023/06/21 05:39:38;;;;;;;8.68;7.85;;;26.90;54.40;;;;;;5045006;28;20094;-65
2023/06/21 05:42:04;;;;;;;9.27;8.38;;;26.90;54.30;;;;;;5045433;28;20051;-64
2023/06/21 05:44:30;;;;;;;8.93;8.02;;;26.90;54.30;;;;;;5045945;28;20051;-63
2023/06/21 05:46:56;;;;;;;9.55;8.60;;;26.90;54.30;;;;;;5044573;28;20356;-61
2023/06/21 05:49:22;;;;;;;8.88;7.97;;;26.90;54.30;;;;;;5042374;28;20029;-62
2023/06/21 05:51:48;;;;;;;9.20;8.30;;;26.90;54.30;;;;;;5043982;28;20381;-61
2023/06/21 05:54:14;;;;;;;9.40;8.50;;;26.90;54.30;;;;;;5023590;28;20039;-62
2023/06/21 05:56:39;;;;;;;8.77;7.97;;;26.90;54.30;;;;;;5045565;28;20041;-63
2023/06/21 05:59:05;;;;;;;8.68;7.88;;;26.90;54.30;;;;;;5025903;28;20506;-62
2023/06/21 06:01:31;;;;;;;10.25;8.57;;;26.90;54.20;;;;;;5046353;28;20439;-61
2023/06/21 06:03:57;;;;;;;10.18;9.18;;;26.90;54.20;;;;;;5043239;28;20085;-61
2023/06/21 06:06:23;;;;;;;10.27;9.35;;;26.90;54.20;;;;;;5043349;28;20036;-62
2023/06/21 06:08:49;;;;;;;9.80;8.80;;;26.90;54.20;;;;;;5042811;28;20052;-64
2023/06/21 06:11:14;;;;;;;10.38;9.20;;;26.90;54.20;;;;;;5046308;28;20182;-61
2023/06/21 06:13:40;;;;;;;10.65;9.68;;;26.90;54.20;;;;;;5043814;28;20037;-60
2023/06/21 06:16:06;;;;;;;9.43;8.63;;;26.90;54.20;;;;;;5045585;28;20120;-62
2023/06/21 06:18:32;;;;;;;9.75;8.85;;;26.90;54.10;;;;;;5043986;28;20029;-64
2023/06/21 06:20:58;;;;;;;11.63;8.15;;;26.90;54.10;;;;;;5045180;28;20029;-61
2023/06/21 06:23:24;;;;;;;9.70;8.70;;;26.90;54.10;;;;;;5041540;28;20059;-60
2023/06/21 06:25:51;;;;;;;9.23;8.32;;;26.90;54.10;;;;;;5044440;28;20077;-60
2023/06/21 06:28:17;;;;;;;8.95;8.15;;;26.90;54.00;;;;;;5024297;28;20194;-61
2023/06/21 06:30:42;;;;;;;8.52;7.72;;;26.90;54.00;;;;;;5029173;28;20119;-63
2023/06/21 06:33:08;;;;;;;8.18;7.47;;;27.00;54.10;;;;;;5046133;28;20059;-61
2023/06/21 06:35:34;;;;;;;8.50;7.70;;;26.90;54.00;;;;;;5042328;28;20127;-62
2023/06/21 06:38:00;;;;;;;8.77;7.47;;;26.90;54.10;;;;;;5044579;28;20044;-63
2023/06/21 06:40:26;;;;;;;8.45;6.93;;;26.90;54.00;;;;;;5044852;28;20044;-62
2023/06/21 06:42:51;;;;;;;8.20;7.40;;;26.90;54.00;;;;;;5022825;28;20079;-60
2023/06/21 06:45:17;;;;;;;9.43;7.30;;;27.00;54.10;;;;;;5045137;28;20404;-61
2023/06/21 06:47:43;;;;;;;8.35;7.57;;;27.00;54.10;;;;;;5040880;28;20047;-61
2023/06/21 06:50:09;;;;;;;7.97;7.28;;;26.90;54.00;;;;;;5026734;28;20051;-62
2023/06/21 06:52:35;;;;;;;7.93;7.13;;;26.90;54.00;;;;;;5042391;28;20031;-61
2023/06/21 06:55:01;;;;;;;7.75;7.05;;;27.00;54.00;;;;;;5042127;28;20040;-62
2023/06/21 06:57:27;;;;;;;8.23;7.45;;;27.00;54.00;;;;;;5044415;28;20102;-61
2023/06/21 06:59:53;;;;;;;7.40;6.70;;;27.00;54.00;;;;;;5020556;28;20504;-60
2023/06/21 07:02:18;;;;;;;7.35;6.65;;;27.00;54.00;;;;;;5035798;28;20022;-62
2023/06/21 07:04:44;;;;;;;7.65;6.95;;;27.00;53.90;;;;;;5022222;28;20433;-61
2023/06/21 07:07:10;;;;;;;7.82;7.07;;;27.00;53.90;;;;;;5041396;28;20032;-61
2023/06/21 07:09:37;;;;;;;8.73;7.93;;;27.00;53.90;;;;;;5032543;28;20050;-60
2023/06/21 07:12:04;;;;;;;9.45;7.57;;;27.00;53.90;;;;;;5039789;28;20333;-62
2023/06/21 07:14:30;;;;;;;8.60;7.90;;;26.90;53.80;;;;;;5023568;28;20098;-61
2023/06/21 07:16:56;;;;;;;9.30;8.50;;;27.00;53.90;;;;;;5043532;28;20389;-59
2023/06/21 07:19:22;;;;;;;9.45;8.65;;;27.00;53.90;;;;;;5044417;28;20122;-61
2023/06/21 07:21:49;;;;;;;9.98;8.98;;;27.00;53.90;;;;;;5038203;28;20116;-61
2023/06/21 07:24:15;;;;;;;10.88;9.88;;;27.00;53.90;;;;;;5035148;28;20038;-61
2023/06/21 07:26:41;;;;;;;11.05;10.07;;;27.00;53.90;;;;;;5031749;28;20090;-61
2023/06/21 07:29:07;;;;;;;10.77;9.85;;;27.00;53.90;;;;;;5049958;28;20086;-60
2023/06/21 07:31:33;;;;;;;11.43;10.45;;;27.00;53.90;;;;;;5048534;28;20416;-62
2023/06/21 07:34:00;;;;;;;10.48;9.48;;;27.00;53.90;;;;;;5031765;28;20110;-60
2023/06/21 07:36:27;;;;;;;11.38;10.45;;;27.00;53.90;;;;;;5042281;28;20037;-62
2023/06/21 07:38:53;;;;;;;10.60;9.70;;;27.00;53.80;;;;;;5030053;28;20034;-62
2023/06/21 07:41:19;;;;;;;10.43;9.52;;;27.00;53.80;;;;;;5044755;28;20048;-61
2023/06/21 07:43:45;;;;;;;10.65;9.75;;;27.00;53.70;;;;;;5031286;28;20044;-63
2023/06/21 07:46:11;;;;;;;10.13;9.25;;;27.10;53.70;;;;;;5026955;28;20045;-61
2023/06/21 07:48:38;;;;;;;10.90;9.82;;;27.10;53.60;;;;;;5029469;28;20117;-63
2023/06/21 07:51:04;;;;;;;10.32;9.43;;;27.10;53.50;;;;;;5012168;28;20048;-61
2023/06/21 07:53:31;;;;;;;10.50;9.60;;;27.10;53.40;;;;;;5043163;28;20143;-61
2023/06/21 07:55:56;;;;;;;9.88;9.07;;;27.10;53.30;;;;;;5041399;28;20097;-62
2023/06/21 07:58:22;;;;;;;10.32;9.52;;;27.10;53.20;;;;;;5034269;28;20025;-62
2023/06/21 08:00:49;;;;;;;9.93;9.13;;;27.10;53.20;;;;;;5036492;28;20291;-62
2023/06/21 08:03:15;;;;;;;10.43;9.52;;;27.10;53.10;;;;;;5043317;28;20036;-63
2023/06/21 08:05:40;;;;;;;10.35;9.45;;;27.20;53.10;;;;;;5021802;28;20044;-63
2023/06/21 08:08:06;;;;;;;11.48;10.57;;;27.20;53.00;;;;;;5038906;28;20076;-64
2023/06/21 08:10:33;;;;;;;11.10;10.20;;;27.20;53.00;;;;;;5022136;28;20188;-62
2023/06/21 08:12:59;;;;;;;11.50;10.60;;;27.20;52.90;;;;;;5042294;28;20036;-64
2023/06/21 08:15:25;;;;;;;10.80;9.95;;;27.20;52.80;;;;;;5040056;28;20124;-61
2023/06/21 08:17:51;;;;;;;10.55;9.68;;;27.20;52.80;;;;;;5044768;28;20087;-62
2023/06/21 08:20:18;;;;;;;11.23;10.13;;;27.20;52.70;;;;;;5041665;28;20029;-61
2023/06/21 08:22:43;;;;;;;10.68;9.68;;;27.30;52.70;;;;;;5041036;28;20124;-59
2023/06/21 08:25:09;;;;;;;10.60;9.65;;;27.30;52.60;;;;;;5008586;28;20091;-62
2023/06/21 08:27:35;;;;;;;11.05;10.15;;;27.30;52.50;;;;;;5022032;28;20021;-65
2023/06/21 08:30:02;;;;;;;11.13;10.23;;;27.30;52.50;;;;;;5022469;28;20021;-62
2023/06/21 08:32:28;;;;;;;11.05;9.95;;;27.30;52.50;;;;;;5040211;28;20021;-62
2023/06/21 08:34:54;;;;;;;10.80;9.90;;;27.30;52.50;;;;;;5038858;28;20101;-62
2023/06/21 08:37:25;;;;;;;10.88;9.98;;;27.40;52.50;;;;;;5043978;28;20022;-62
2023/06/21 08:39:56;;;;;;;10.23;9.32;;;27.30;52.30;;;;;;5032569;28;20052;-61
2023/06/21 08:42:26;;;;;;;10.27;9.38;;;27.30;52.30;;;;;;5048760;28;20037;-62
2023/06/21 08:44:56;;;;;;;10.15;9.25;;;27.30;52.20;;;;;;5051317;28;20129;-64
2023/06/21 08:47:23;;;;;;;9.65;8.85;;;27.40;52.30;;;;;;5024444;28;20034;-61
2023/06/21 08:49:50;;;;;;;10.43;9.63;;;27.40;52.30;;;;;;5041329;28;20135;-62
2023/06/21 08:52:20;;;;;;;9.75;8.95;;;27.40;52.20;;;;;;5041206;28;20035;-60
2023/06/21 08:54:53;;;;;;;9.23;8.45;;;27.40;52.10;;;;;;5044700;28;20021;-60
2023/06/21 08:57:23;;;;;;;8.53;7.83;;;27.40;52.10;;;;;;5046062;28;20151;-62
2023/06/21 08:59:59;;;;;;;8.85;8.07;;;27.40;52.10;;;;;;5041799;28;20162;-62
2023/06/21 09:02:31;;;;;;;8.85;8.05;;;27.40;52.00;;;;;;5046249;28;20029;-61
2023/06/21 09:04:59;;;;;;;8.15;7.45;;;27.40;52.00;;;;;;5043502;28;20033;-60
2023/06/21 09:07:25;;;;;;;7.63;7.03;;;27.40;51.90;;;;;;5037324;28;20026;-62
2023/06/21 09:09:54;;;;;;;7.97;7.30;;;27.40;51.90;;;;;;5041368;28;20033;-63
2023/06/21 09:12:20;;;;;;;7.70;7.00;;;27.40;51.80;;;;;;5042729;28;20287;-61
2023/06/21 09:14:47;;;;;;;7.28;6.68;;;27.40;51.70;;;;;;5041484;28;20021;-60
2023/06/21 09:17:14;;;;;;;7.72;7.03;;;27.40;51.70;;;;;;5041440;28;20111;-61
2023/06/21 09:19:42;;;;;;;6.55;5.95;;;27.40;51.60;;;;;;5047834;28;20432;-62
2023/06/21 09:22:08;;;;;;;7.05;6.45;;;27.40;51.60;;;;;;5045279;28;20041;-62
2023/06/21 09:24:34;;;;;;;5.95;5.45;;;27.50;51.60;;;;;;5043808;28;20025;-62
2023/06/21 09:27:00;;;;;;;6.43;5.93;;;27.50;51.50;;;;;;5042467;28;20043;-61
2023/06/21 09:29:26;;;;;;;6.28;5.75;;;27.50;51.40;;;;;;5036774;28;20055;-62
2023/06/21 09:31:52;;;;;;;5.85;5.35;;;27.50;51.40;;;;;;5041917;28;20108;-61
2023/06/21 09:34:17;;;;;;;5.50;4.63;;;27.50;51.40;;;;;;5042383;28;20116;-61
2023/06/21 09:36:43;;;;;;;5.38;4.93;;;27.50;51.40;;;;;;5033323;28;20076;-62
2023/06/21 09:39:11;;;;;;;5.25;4.72;;;27.50;51.40;;;;;;5031101;28;20158;-63
2023/06/21 09:41:39;;;;;;;6.45;4.80;;;27.50;51.40;;;;;;5046540;28;20029;-62
2023/06/21 09:44:05;;;;;;;5.25;4.60;;;27.50;51.40;;;;;;5033291;28;20175;-61
2023/06/21 09:46:31;;;;;;;4.63;4.20;;;27.50;51.50;;;;;;5043652;28;20516;-61
2023/06/21 09:49:09;;;;;;;5.57;4.13;;;27.60;51.50;;;;;;5038544;28;20030;-63
2023/06/21 09:51:54;;;;;;;4.15;3.85;;;27.60;51.50;;;;;;5042194;28;20048;-62
2023/06/21 09:54:19;;;;;;;;;;;27.60;51.50;;;;;;5045849;28;20036;-63
2023/06/21 09:56:45;;;;;;;6.20;3.70;;;27.60;51.50;;;;;;5021604;28;19928;-63
2023/06/21 09:59:19;;;;;;;4.35;3.20;;;27.60;51.40;;;;;;5038200;28;20029;-61
2023/06/21 10:01:47;;;;;;;4.28;3.80;;;27.60;51.30;;;;;;5035366;28;20400;-61
2023/06/21 10:04:15;;;;;;;3.28;2.97;;;27.60;51.20;;;;;;5019126;28;20364;-60
2023/06/21 10:06:56;;;;;;;4.28;3.63;;;27.60;51.10;;;;;;5039136;28;20413;-61
2023/06/21 10:09:22;;;;;;;3.42;2.97;;;27.60;50.90;;;;;;5023949;28;20767;-59
2023/06/21 10:11:54;;;;;;;3.33;2.97;;;27.70;51.00;;;;;;5039564;28;20044;-61
2023/06/21 10:14:25;;;;;;;2.90;2.70;;;27.70;50.90;;;;;;5038128;28;20037;-61
2023/06/21 10:16:54;;;;;;;2.78;2.55;;;27.70;50.70;;;;;;5023705;28;20037;-61
2023/06/21 10:19:30;;;;;;;2.53;2.33;;;27.70;50.60;;;;;;5041528;28;20451;-62
2023/06/21 10:22:04;;;;;;;2.63;2.42;;;27.70;50.50;;;;;;5041737;28;20440;-63
2023/06/21 10:24:42;;;;;;;2.40;1.95;;;27.70;50.40;;;;;;5038607;28;20350;-61
2023/06/21 10:27:10;;;;;;;2.20;2.00;;;27.70;50.20;;;;;;5038994;28;20029;-62
2023/06/21 10:29:39;;;;;;;1.77;1.67;;;27.70;50.20;;;;;;5036571;28;20094;-61
2023/06/21 10:32:05;;;;;;;2.20;2.00;;;27.70;50.10;;;;;;5038696;28;20033;-60
2023/06/21 10:34:48;;;;;;;2.20;2.00;;;27.70;50.00;;;;;;5042239;28;20116;-60
2023/06/21 10:37:37;;;;;;;2.00;1.88;;;27.70;49.90;;;;;;5032337;28;20467;-62
2023/06/21 10:40:06;;;;;;;2.00;1.80;;;27.70;49.90;;;;;;5023738;28;20469;-61
2023/06/21 10:42:32;;;;;;;1.90;1.80;;;27.70;49.80;;;;;;5040424;28;20049;-61
2023/06/21 10:45:00;;;;;;;1.60;1.50;;;27.70;49.80;;;;;;5018993;28;20330;-60
2023/06/21 10:47:26;;;;;;;1.90;1.50;;;27.70;49.70;;;;;;5019905;28;20041;-62
2023/06/21 10:50:00;;;;;;;2.15;1.85;;;27.70;49.60;;;;;;5019645;28;20405;-62
2023/06/21 10:52:29;;;;;;;3.42;1.40;;;27.70;49.50;;;;;;5006460;28;20029;-63
2023/06/21 10:54:59;;;;;;;1.58;1.48;;;27.70;49.40;;;;;;5029344;28;20096;-61
2023/06/21 10:57:28;;;;;;;1.30;1.20;;;27.70;49.90;;;;;;5040127;28;20025;-62
2023/06/21 11:00:06;;;;;;;1.55;1.40;;;27.70;49.20;;;;;;5033583;28;20037;-61
2023/06/21 11:02:33;;;;;;;3.15;1.40;;;27.80;49.10;;;;;;5017427;28;20428;-61
2023/06/21 11:05:15;;;;;;;2.70;1.40;;;27.70;49.00;;;;;;5037062;28;20028;-61
2023/06/21 11:08:30;;;;;;;1.75;1.30;;;27.80;49.00;;;;;;5034818;28;20574;-60
2023/06/21 11:10:56;;;;;;;1.58;1.20;;;27.80;48.80;;;;;;4939473;28;20035;-59
2023/06/21 11:13:38;;;;;;;1.42;1.08;;;27.80;48.80;;;;;;4942590;28;20047;-63
2023/06/21 11:16:15;;;;;;;1.40;1.13;;;27.80;48.60;;;;;;5005239;28;20056;-61
2023/06/21 11:18:56;;;;;;;1.38;1.13;;;27.70;48.50;;;;;;5038023;28;20088;-59
2023/06/21 11:21:44;;;;;;;1.15;1.05;;;27.80;48.40;;;;;;5020273;28;20025;-62
2023/06/21 11:24:15;;;;;;;3.30;1.08;;;27.70;48.20;;;;;;5041093;28;20139;-61
2023/06/21 11:26:56;;;;;;;1.17;1.08;;;27.80;48.30;;;;;;5039972;28;20167;-60
2023/06/21 11:29:25;;;;;;;1.58;1.20;;;27.80;48.10;;;;;;5046024;28;20089;-64
2023/06/21 11:32:07;;;;;;;1.55;1.23;;;27.80;48.10;;;;;;5048406;28;20069;-62
2023/06/21 11:34:33;;;;;;;1.30;1.20;;;27.80;48.00;;;;;;5041046;28;20081;-63
2023/06/21 11:37:32;;;;;;;1.25;1.15;;;27.80;48.00;;;;;;5037907;28;20074;-59
2023/06/21 11:40:03;;;;;;;1.30;1.08;;;27.80;47.90;;;;;;5025953;28;20101;-62
2023/06/21 11:42:34;;;;;;;1.73;1.20;;;27.80;47.80;;;;;;5043594;28;20029;-60
2023/06/21 11:45:16;;;;;;;1.15;1.05;;;27.80;47.80;;;;;;5041458;28;20041;-59
2023/06/21 11:48:12;;;;;;;1.63;1.10;;;27.80;47.60;;;;;;5043021;28;20086;-61
2023/06/21 11:50:43;;;;;;;1.30;1.17;;;27.80;47.60;;;;;;5041815;28;20043;-61
2023/06/21 11:53:26;;;;;;;1.63;1.13;;;27.90;47.70;;;;;;5015062;28;20361;-59
2023/06/21 11:55:54;;;;;;;1.10;1.00;;;27.90;47.60;;;;;;5042150;28;20074;-60
2023/06/21 11:58:20;;;;;;;1.38;1.10;;;27.90;47.50;;;;;;5037841;28;20022;-62
2023/06/21 12:00:47;;;;;;;1.55;1.10;;;27.90;47.50;;;;;;5042800;28;20397;-63
2023/06/21 12:03:14;;;;;;;1.50;1.20;;;27.90;47.50;;;;;;5041445;28;20395;-63
2023/06/21 12:05:57;;;;;;;1.10;1.00;;;27.90;47.50;;;;;;5040658;28;20040;-61
2023/06/21 12:08:29;;;;;;;1.08;0.98;;;27.90;47.40;;;;;;5039540;28;20040;-63
2023/06/21 12:10:59;;;;;;;1.60;1.20;;;27.90;47.30;;;;;;5027995;28;20051;-61
2023/06/21 12:13:26;;;;;;;2.20;1.25;;;27.90;47.30;;;;;;5038440;28;20086;-61
2023/06/21 12:15:58;;;;;;;1.40;1.15;;;27.90;47.20;;;;;;5037150;28;20098;-63
2023/06/21 12:18:26;;;;;;;2.08;1.42;;;27.90;47.20;;;;;;5042783;28;20128;-61
2023/06/21 12:21:00;;;;;;;1.50;1.15;;;27.90;47.10;;;;;;5051322;28;20116;-62
2023/06/21 12:23:28;;;;;;;2.28;1.42;;;27.90;47.10;;;;;;5048378;28;20095;-60
2023/06/21 12:26:03;;;;;;;1.30;1.00;;;27.90;47.00;;;;;;5017239;28;20128;-63
2023/06/21 12:28:31;;;;;;;1.80;1.10;;;27.90;47.00;;;;;;5036773;28;20065;-62
2023/06/21 12:30:58;;;;;;;1.40;1.08;;;27.90;46.90;;;;;;5040567;28;20032;-62
2023/06/21 12:33:28;;;;;;;1.23;0.88;;;27.90;46.80;;;;;;5042872;28;20032;-64
2023/06/21 12:36:23;;;;;;;1.05;0.90;;;27.90;46.80;;;;;;5045375;28;20044;-62
2023/06/21 12:38:54;;;;;;;1.65;1.20;;;27.90;46.70;;;;;;5023868;28;20089;-61
2023/06/21 12:41:21;;;;;;;1.10;0.93;;;27.90;46.60;;;;;;5021500;28;20116;-64
2023/06/21 12:43:49;;;;;;;1.75;0.88;;;27.90;46.50;;;;;;5040801;28;20120;-65
2023/06/21 12:46:22;;;;;;;2.63;0.98;;;27.90;46.50;;;;;;5038010;28;20025;-66
2023/06/21 12:48:53;;;;;;;2.03;0.90;;;27.90;46.50;;;;;;5042588;28;20123;-65
2023/06/21 12:51:31;;;;;;;0.90;0.80;;;28.00;46.60;;;;;;5045377;28;20025;-65
2023/06/21 12:54:19;;;;;;;1.08;0.88;;;28.00;46.50;;;;;;5045931;28;20297;-66